sensor_id;sensor_type;location;lat;lon;timestamp;temperature;humidity
70851;DHT22;58475;49.662;9.636;2024-03-08T00:01:13;3.89;74.75
70851;DHT22;58475;49.662;9.636;2024-03-08T00:03:39;3.86;75.08
70851;DHT22;58475;49.662;9.636;2024-03-08T00:06:05;3.91;74.01
70851;DHT22;58475;49.662;9.636;2024-03-08T00:08:31;3.86;74.39
70851;DHT22;58475;49.662;9.636;2024-03-08T00:10:56;3.80;74.94
70851;DHT22;58475;49.662;9.636;2024-03-08T00:13:21;3.67;74.41
70851;DHT22;58475;49.662;9.636;2024-03-08T00:15:47;3.67;74.75
70851;DHT22;58475;49.662;9.636;2024-03-08T00:18:12;3.62;74.87
70851;DHT22;58475;49.662;9.636;2024-03-08T00:20:38;3.55;75.19
70851;DHT22;58475;49.662;9.636;2024-03-08T00:23:03;3.58;74.94
70851;DHT22;58475;49.662;9.636;2024-03-08T00:25:29;3.52;75.23
70851;DHT22;58475;49.662;9.636;2024-03-08T00:27:54;3.43;75.67
70851;DHT22;58475;49.662;9.636;2024-03-08T00:30:22;3.39;75.89
70851;DHT22;58475;49.662;9.636;2024-03-08T00:32:48;3.19;76.46
70851;DHT22;58475;49.662;9.636;2024-03-08T00:35:14;3.24;76.32
70851;DHT22;58475;49.662;9.636;2024-03-08T00:37:39;3.21;76.46
70851;DHT22;58475;49.662;9.636;2024-03-08T00:40:06;3.12;76.83
70851;DHT22;58475;49.662;9.636;2024-03-08T00:42:32;3.12;76.57
70851;DHT22;58475;49.662;9.636;2024-03-08T00:44:58;3.16;76.69
70851;DHT22;58475;49.662;9.636;2024-03-08T00:47:24;3.04;76.88
70851;DHT22;58475;49.662;9.636;2024-03-08T00:49:49;2.97;77.56
70851;DHT22;58475;49.662;9.636;2024-03-08T00:52:14;2.98;77.37
70851;DHT22;58475;49.662;9.636;2024-03-08T00:54:39;2.94;77.50
70851;DHT22;58475;49.662;9.636;2024-03-08T00:57:05;2.83;77.71
70851;DHT22;58475;49.662;9.636;2024-03-08T00:59:31;2.81;77.90
70851;DHT22;58475;49.662;9.636;2024-03-08T01:01:58;2.81;77.98
70851;DHT22;58475;49.662;9.636;2024-03-08T01:04:24;2.87;78.14
70851;DHT22;58475;49.662;9.636;2024-03-08T01:06:51;2.81;78.19
70851;DHT22;58475;49.662;9.636;2024-03-08T01:09:16;2.72;78.53
70851;DHT22;58475;49.662;9.636;2024-03-08T01:11:42;2.65;78.71
70851;DHT22;58475;49.662;9.636;2024-03-08T01:14:08;2.68;78.60
70851;DHT22;58475;49.662;9.636;2024-03-08T01:16:33;2.65;78.56
70851;DHT22;58475;49.662;9.636;2024-03-08T01:18:59;2.57;78.84
70851;DHT22;58475;49.662;9.636;2024-03-08T01:21:24;2.50;79.35
70851;DHT22;58475;49.662;9.636;2024-03-08T01:23:49;2.54;79.73
70851;DHT22;58475;49.662;9.636;2024-03-08T01:26:15;2.40;80.46
70851;DHT22;58475;49.662;9.636;2024-03-08T01:28:40;2.22;80.76
70851;DHT22;58475;49.662;9.636;2024-03-08T01:31:05;2.21;80.95
70851;DHT22;58475;49.662;9.636;2024-03-08T01:33:31;1.91;82.23
70851;DHT22;58475;49.662;9.636;2024-03-08T01:35:57;1.73;83.11
70851;DHT22;58475;49.662;9.636;2024-03-08T01:38:23;1.71;83.04
70851;DHT22;58475;49.662;9.636;2024-03-08T01:40:49;1.64;83.05
70851;DHT22;58475;49.662;9.636;2024-03-08T01:43:35;1.55;83.50
70851;DHT22;58475;49.662;9.636;2024-03-08T01:46:01;1.54;83.29
70851;DHT22;58475;49.662;9.636;2024-03-08T01:48:28;1.63;82.86
70851;DHT22;58475;49.662;9.636;2024-03-08T01:50:55;1.47;83.24
70851;DHT22;58475;49.662;9.636;2024-03-08T01:53:22;1.32;84.01
70851;DHT22;58475;49.662;9.636;2024-03-08T01:55:48;1.34;84.08
70851;DHT22;58475;49.662;9.636;2024-03-08T01:58:15;1.23;84.53
70851;DHT22;58475;49.662;9.636;2024-03-08T02:00:44;1.24;84.44
70851;DHT22;58475;49.662;9.636;2024-03-08T02:03:11;1.24;84.17
70851;DHT22;58475;49.662;9.636;2024-03-08T02:05:38;1.22;84.30
70851;DHT22;58475;49.662;9.636;2024-03-08T02:08:06;1.16;84.50
70851;DHT22;58475;49.662;9.636;2024-03-08T02:10:33;1.23;84.21
70851;DHT22;58475;49.662;9.636;2024-03-08T02:12:59;1.22;84.31
70851;DHT22;58475;49.662;9.636;2024-03-08T02:15:26;1.19;84.56
70851;DHT22;58475;49.662;9.636;2024-03-08T02:17:51;1.19;84.64
70851;DHT22;58475;49.662;9.636;2024-03-08T02:20:18;1.23;84.46
70851;DHT22;58475;49.662;9.636;2024-03-08T02:22:45;1.12;84.95
70851;DHT22;58475;49.662;9.636;2024-03-08T02:25:11;1.07;85.07
70851;DHT22;58475;49.662;9.636;2024-03-08T02:27:36;1.22;85.27
70851;DHT22;58475;49.662;9.636;2024-03-08T02:30:02;1.44;84.57
70851;DHT22;58475;49.662;9.636;2024-03-08T02:32:27;1.53;84.11
70851;DHT22;58475;49.662;9.636;2024-03-08T02:34:56;1.55;84.00
70851;DHT22;58475;49.662;9.636;2024-03-08T02:37:25;1.46;84.23
70851;DHT22;58475;49.662;9.636;2024-03-08T02:39:50;1.36;84.52
70851;DHT22;58475;49.662;9.636;2024-03-08T02:42:15;1.32;84.68
70851;DHT22;58475;49.662;9.636;2024-03-08T02:44:43;1.32;84.76
70851;DHT22;58475;49.662;9.636;2024-03-08T02:47:09;1.23;84.67
70851;DHT22;58475;49.662;9.636;2024-03-08T02:49:35;1.15;84.93
70851;DHT22;58475;49.662;9.636;2024-03-08T02:52:02;1.13;85.29
70851;DHT22;58475;49.662;9.636;2024-03-08T02:54:27;1.07;85.36
70851;DHT22;58475;49.662;9.636;2024-03-08T02:56:53;1.10;85.48
70851;DHT22;58475;49.662;9.636;2024-03-08T02:59:18;1.15;85.38
70851;DHT22;58475;49.662;9.636;2024-03-08T03:01:44;1.20;85.45
70851;DHT22;58475;49.662;9.636;2024-03-08T03:04:09;1.27;85.08
70851;DHT22;58475;49.662;9.636;2024-03-08T03:06:34;1.19;85.40
70851;DHT22;58475;49.662;9.636;2024-03-08T03:09:01;1.19;85.31
70851;DHT22;58475;49.662;9.636;2024-03-08T03:11:26;1.09;85.84
70851;DHT22;58475;49.662;9.636;2024-03-08T03:13:52;1.13;85.74
70851;DHT22;58475;49.662;9.636;2024-03-08T03:16:20;1.19;85.68
70851;DHT22;58475;49.662;9.636;2024-03-08T03:18:46;1.20;85.37
70851;DHT22;58475;49.662;9.636;2024-03-08T03:21:12;1.13;85.94
70851;DHT22;58475;49.662;9.636;2024-03-08T03:23:41;1.16;85.92
70851;DHT22;58475;49.662;9.636;2024-03-08T03:26:09;1.10;85.83
70851;DHT22;58475;49.662;9.636;2024-03-08T03:28:38;1.12;86.00
70851;DHT22;58475;49.662;9.636;2024-03-08T03:31:06;1.09;85.78
70851;DHT22;58475;49.662;9.636;2024-03-08T03:33:32;0.95;86.19
70851;DHT22;58475;49.662;9.636;2024-03-08T03:35:59;0.91;86.05
70851;DHT22;58475;49.662;9.636;2024-03-08T03:38:26;0.78;86.53
70851;DHT22;58475;49.662;9.636;2024-03-08T03:40:53;0.79;87.10
70851;DHT22;58475;49.662;9.636;2024-03-08T03:43:21;0.85;87.36
70851;DHT22;58475;49.662;9.636;2024-03-08T03:45:47;0.89;87.36
70851;DHT22;58475;49.662;9.636;2024-03-08T03:48:12;0.95;87.12
70851;DHT22;58475;49.662;9.636;2024-03-08T03:50:38;1.05;87.10
70851;DHT22;58475;49.662;9.636;2024-03-08T03:53:04;1.13;86.81
70851;DHT22;58475;49.662;9.636;2024-03-08T03:55:29;1.16;86.83
70851;DHT22;58475;49.662;9.636;2024-03-08T03:57:55;1.17;86.61
70851;DHT22;58475;49.662;9.636;2024-03-08T04:00:20;1.16;86.68
70851;DHT22;58475;49.662;9.636;2024-03-08T04:02:45;1.12;86.74
70851;DHT22;58475;49.662;9.636;2024-03-08T04:05:12;1.12;86.79
70851;DHT22;58475;49.662;9.636;2024-03-08T04:07:38;1.07;86.43
70851;DHT22;58475;49.662;9.636;2024-03-08T04:10:06;1.03;86.61
70851;DHT22;58475;49.662;9.636;2024-03-08T04:12:33;0.99;86.75
70851;DHT22;58475;49.662;9.636;2024-03-08T04:14:58;0.88;87.20
70851;DHT22;58475;49.662;9.636;2024-03-08T04:17:23;0.76;87.36
70851;DHT22;58475;49.662;9.636;2024-03-08T04:19:49;0.78;87.27
70851;DHT22;58475;49.662;9.636;2024-03-08T04:22:15;0.71;87.95
70851;DHT22;58475;49.662;9.636;2024-03-08T04:24:43;0.74;87.93
70851;DHT22;58475;49.662;9.636;2024-03-08T04:27:08;0.78;87.55
70851;DHT22;58475;49.662;9.636;2024-03-08T04:29:34;0.69;87.44
70851;DHT22;58475;49.662;9.636;2024-03-08T04:32:00;0.71;87.67
70851;DHT22;58475;49.662;9.636;2024-03-08T04:34:26;0.65;87.83
70851;DHT22;58475;49.662;9.636;2024-03-08T04:36:53;0.69;87.87
70851;DHT22;58475;49.662;9.636;2024-03-08T04:39:18;0.61;88.40
70851;DHT22;58475;49.662;9.636;2024-03-08T04:41:44;0.64;87.97
70851;DHT22;58475;49.662;9.636;2024-03-08T04:44:10;0.58;87.75
70851;DHT22;58475;49.662;9.636;2024-03-08T04:46:36;0.51;88.41
70851;DHT22;58475;49.662;9.636;2024-03-08T04:49:01;0.50;88.35
70851;DHT22;58475;49.662;9.636;2024-03-08T04:51:27;0.44;88.45
70851;DHT22;58475;49.662;9.636;2024-03-08T04:53:52;0.48;88.35
70851;DHT22;58475;49.662;9.636;2024-03-08T04:56:18;0.38;88.22
70851;DHT22;58475;49.662;9.636;2024-03-08T04:58:44;0.31;88.23
70851;DHT22;58475;49.662;9.636;2024-03-08T05:01:12;0.28;88.56
70851;DHT22;58475;49.662;9.636;2024-03-08T05:03:37;0.18;89.30
70851;DHT22;58475;49.662;9.636;2024-03-08T05:06:03;0.14;89.29
70851;DHT22;58475;49.662;9.636;2024-03-08T05:08:29;0.16;89.26
70851;DHT22;58475;49.662;9.636;2024-03-08T05:10:54;0.18;89.46
70851;DHT22;58475;49.662;9.636;2024-03-08T05:13:20;0.17;89.35
70851;DHT22;58475;49.662;9.636;2024-03-08T05:15:48;0.18;89.46
70851;DHT22;58475;49.662;9.636;2024-03-08T05:18:15;0.20;89.15
70851;DHT22;58475;49.662;9.636;2024-03-08T05:20:40;0.21;88.80
70851;DHT22;58475;49.662;9.636;2024-03-08T05:23:06;0.27;88.96
70851;DHT22;58475;49.662;9.636;2024-03-08T05:25:32;0.31;88.81
70851;DHT22;58475;49.662;9.636;2024-03-08T05:27:57;0.25;89.46
70851;DHT22;58475;49.662;9.636;2024-03-08T05:30:23;0.25;89.03
70851;DHT22;58475;49.662;9.636;2024-03-08T05:32:48;0.25;89.11
70851;DHT22;58475;49.662;9.636;2024-03-08T05:35:13;0.30;89.35
70851;DHT22;58475;49.662;9.636;2024-03-08T05:37:41;0.40;88.88
70851;DHT22;58475;49.662;9.636;2024-03-08T05:40:08;0.37;88.95
70851;DHT22;58475;49.662;9.636;2024-03-08T05:42:35;0.33;88.85
70851;DHT22;58475;49.662;9.636;2024-03-08T05:45:00;0.33;88.99
70851;DHT22;58475;49.662;9.636;2024-03-08T05:47:25;0.27;89.18
70851;DHT22;58475;49.662;9.636;2024-03-08T05:49:51;0.27;89.09
70851;DHT22;58475;49.662;9.636;2024-03-08T05:52:18;0.23;89.35
70851;DHT22;58475;49.662;9.636;2024-03-08T05:54:44;0.28;89.28
70851;DHT22;58475;49.662;9.636;2024-03-08T05:57:11;0.34;89.11
70851;DHT22;58475;49.662;9.636;2024-03-08T05:59:36;0.34;89.29
70851;DHT22;58475;49.662;9.636;2024-03-08T06:02:01;0.25;89.53
70851;DHT22;58475;49.662;9.636;2024-03-08T06:04:27;0.25;89.54
70851;DHT22;58475;49.662;9.636;2024-03-08T06:06:52;0.27;89.25
70851;DHT22;58475;49.662;9.636;2024-03-08T06:09:20;0.31;89.52
70851;DHT22;58475;49.662;9.636;2024-03-08T06:11:48;0.34;89.66
70851;DHT22;58475;49.662;9.636;2024-03-08T06:14:13;0.60;89.21
70851;DHT22;58475;49.662;9.636;2024-03-08T06:16:41;0.95;88.48
70851;DHT22;58475;49.662;9.636;2024-03-08T06:19:07;1.09;87.68
70851;DHT22;58475;49.662;9.636;2024-03-08T06:21:33;1.33;86.92
70851;DHT22;58475;49.662;9.636;2024-03-08T06:23:58;1.39;86.45
70851;DHT22;58475;49.662;9.636;2024-03-08T06:26:24;1.55;85.94
70851;DHT22;58475;49.662;9.636;2024-03-08T06:28:50;1.67;85.78
70851;DHT22;58475;49.662;9.636;2024-03-08T06:31:16;2.08;85.12
70851;DHT22;58475;49.662;9.636;2024-03-08T06:33:41;2.30;84.20
70851;DHT22;58475;49.662;9.636;2024-03-08T06:36:09;2.50;83.57
70851;DHT22;58475;49.662;9.636;2024-03-08T06:38:34;2.28;83.74
70851;DHT22;58475;49.662;9.636;2024-03-08T06:40:59;2.54;83.62
70851;DHT22;58475;49.662;9.636;2024-03-08T06:43:28;2.64;83.02
70851;DHT22;58475;49.662;9.636;2024-03-08T06:45:59;2.91;82.64
70851;DHT22;58475;49.662;9.636;2024-03-08T06:48:24;3.42;81.19
70851;DHT22;58475;49.662;9.636;2024-03-08T06:50:49;3.49;80.44
70851;DHT22;58475;49.662;9.636;2024-03-08T06:53:15;3.80;79.73
70851;DHT22;58475;49.662;9.636;2024-03-08T06:55:42;3.87;79.68
70851;DHT22;58475;49.662;9.636;2024-03-08T06:58:07;3.51;80.26
70851;DHT22;58475;49.662;9.636;2024-03-08T07:00:33;4.28;79.16
70851;DHT22;58475;49.662;9.636;2024-03-08T07:02:59;4.65;78.15
70851;DHT22;58475;49.662;9.636;2024-03-08T07:05:28;4.93;76.62
70851;DHT22;58475;49.662;9.636;2024-03-08T07:07:53;5.12;76.87
70851;DHT22;58475;49.662;9.636;2024-03-08T07:10:20;5.40;75.74
70851;DHT22;58475;49.662;9.636;2024-03-08T07:12:46;5.33;75.41
70851;DHT22;58475;49.662;9.636;2024-03-08T07:15:12;5.66;75.57
70851;DHT22;58475;49.662;9.636;2024-03-08T07:17:41;5.83;74.07
70851;DHT22;58475;49.662;9.636;2024-03-08T07:20:10;6.01;74.31
70851;DHT22;58475;49.662;9.636;2024-03-08T07:22:37;6.03;74.17
70851;DHT22;58475;49.662;9.636;2024-03-08T07:25:05;6.05;73.42
70851;DHT22;58475;49.662;9.636;2024-03-08T07:27:54;6.19;72.94
70851;DHT22;58475;49.662;9.636;2024-03-08T07:30:24;6.13;73.49
70851;DHT22;58475;49.662;9.636;2024-03-08T07:33:08;6.53;72.16
70851;DHT22;58475;49.662;9.636;2024-03-08T07:35:37;6.37;71.60
70851;DHT22;58475;49.662;9.636;2024-03-08T07:38:12;6.64;72.35
70851;DHT22;58475;49.662;9.636;2024-03-08T07:40:38;6.77;71.27
70851;DHT22;58475;49.662;9.636;2024-03-08T07:43:10;7.20;70.71
70851;DHT22;58475;49.662;9.636;2024-03-08T07:45:36;7.81;68.66
70851;DHT22;58475;49.662;9.636;2024-03-08T07:48:02;7.81;67.21
70851;DHT22;58475;49.662;9.636;2024-03-08T07:50:28;7.77;68.57
70851;DHT22;58475;49.662;9.636;2024-03-08T07:52:54;8.20;67.53
70851;DHT22;58475;49.662;9.636;2024-03-08T07:55:20;8.08;67.80
70851;DHT22;58475;49.662;9.636;2024-03-08T07:57:45;8.26;66.88
70851;DHT22;58475;49.662;9.636;2024-03-08T08:00:13;8.04;67.37
70851;DHT22;58475;49.662;9.636;2024-03-08T08:02:44;7.88;67.80
70851;DHT22;58475;49.662;9.636;2024-03-08T08:05:10;7.98;67.30
70851;DHT22;58475;49.662;9.636;2024-03-08T08:07:36;7.80;67.91
70851;DHT22;58475;49.662;9.636;2024-03-08T08:10:01;7.63;68.53
70851;DHT22;58475;49.662;9.636;2024-03-08T08:12:26;7.73;68.08
70851;DHT22;58475;49.662;9.636;2024-03-08T08:14:54;7.27;68.84
70851;DHT22;58475;49.662;9.636;2024-03-08T08:17:19;7.44;69.15
70851;DHT22;58475;49.662;9.636;2024-03-08T08:19:45;7.69;68.86
70851;DHT22;58475;49.662;9.636;2024-03-08T08:22:11;7.85;68.29
70851;DHT22;58475;49.662;9.636;2024-03-08T08:24:36;8.01;68.76
70851;DHT22;58475;49.662;9.636;2024-03-08T08:27:02;8.05;68.04
70851;DHT22;58475;49.662;9.636;2024-03-08T08:29:28;8.01;68.34
70851;DHT22;58475;49.662;9.636;2024-03-08T08:31:53;8.26;67.49
70851;DHT22;58475;49.662;9.636;2024-03-08T08:34:19;8.26;67.12
70851;DHT22;58475;49.662;9.636;2024-03-08T08:36:45;8.05;66.73
70851;DHT22;58475;49.662;9.636;2024-03-08T08:39:10;8.28;67.11
70851;DHT22;58475;49.662;9.636;2024-03-08T08:41:39;8.77;66.64
70851;DHT22;58475;49.662;9.636;2024-03-08T08:44:07;8.79;65.48
70851;DHT22;58475;49.662;9.636;2024-03-08T08:46:36;9.36;65.63
70851;DHT22;58475;49.662;9.636;2024-03-08T08:49:03;9.44;65.40
70851;DHT22;58475;49.662;9.636;2024-03-08T08:51:28;10.25;64.00
70851;DHT22;58475;49.662;9.636;2024-03-08T08:53:54;10.37;62.61
70851;DHT22;58475;49.662;9.636;2024-03-08T08:56:21;10.09;61.95
70851;DHT22;58475;49.662;9.636;2024-03-08T08:58:47;9.89;62.90
70851;DHT22;58475;49.662;9.636;2024-03-08T09:01:14;9.78;62.64
70851;DHT22;58475;49.662;9.636;2024-03-08T09:03:39;9.69;63.20
70851;DHT22;58475;49.662;9.636;2024-03-08T09:06:11;9.10;65.22
70851;DHT22;58475;49.662;9.636;2024-03-08T09:08:41;8.05;66.09
70851;DHT22;58475;49.662;9.636;2024-03-08T09:11:07;7.95;67.79
70851;DHT22;58475;49.662;9.636;2024-03-08T09:13:32;8.28;68.15
70851;DHT22;58475;49.662;9.636;2024-03-08T09:15:59;9.10;67.19
70851;DHT22;58475;49.662;9.636;2024-03-08T09:18:25;9.07;66.59
70851;DHT22;58475;49.662;9.636;2024-03-08T09:20:50;9.71;64.34
70851;DHT22;58475;49.662;9.636;2024-03-08T09:23:19;9.75;63.25
70851;DHT22;58475;49.662;9.636;2024-03-08T09:25:44;9.69;64.57
70851;DHT22;58475;49.662;9.636;2024-03-08T09:28:10;8.74;65.31
70851;DHT22;58475;49.662;9.636;2024-03-08T09:30:37;8.31;66.47
70851;DHT22;58475;49.662;9.636;2024-03-08T09:33:04;8.50;67.39
70851;DHT22;58475;49.662;9.636;2024-03-08T09:35:29;8.59;66.55
70851;DHT22;58475;49.662;9.636;2024-03-08T09:37:55;8.96;66.16
70851;DHT22;58475;49.662;9.636;2024-03-08T09:40:21;8.77;65.53
70851;DHT22;58475;49.662;9.636;2024-03-08T09:42:48;8.33;66.37
70851;DHT22;58475;49.662;9.636;2024-03-08T09:45:14;8.11;67.84
70851;DHT22;58475;49.662;9.636;2024-03-08T09:47:43;7.94;67.76
70851;DHT22;58475;49.662;9.636;2024-03-08T09:50:09;7.95;68.27
70851;DHT22;58475;49.662;9.636;2024-03-08T09:52:38;7.97;68.67
70851;DHT22;58475;49.662;9.636;2024-03-08T09:55:09;8.14;68.54
70851;DHT22;58475;49.662;9.636;2024-03-08T09:57:36;8.38;67.43
70851;DHT22;58475;49.662;9.636;2024-03-08T10:00:03;9.03;66.02
70851;DHT22;58475;49.662;9.636;2024-03-08T10:02:37;9.48;64.81
70851;DHT22;58475;49.662;9.636;2024-03-08T10:05:02;10.10;65.46
70851;DHT22;58475;49.662;9.636;2024-03-08T10:07:28;9.21;63.76
70851;DHT22;58475;49.662;9.636;2024-03-08T10:09:54;9.11;65.18
70851;DHT22;58475;49.662;9.636;2024-03-08T10:12:19;8.59;66.14
70851;DHT22;58475;49.662;9.636;2024-03-08T10:14:45;8.32;66.67
70851;DHT22;58475;49.662;9.636;2024-03-08T10:17:12;8.97;66.97
70851;DHT22;58475;49.662;9.636;2024-03-08T10:19:37;9.87;64.66
70851;DHT22;58475;49.662;9.636;2024-03-08T10:22:02;10.09;64.02
70851;DHT22;58475;49.662;9.636;2024-03-08T10:24:29;10.24;63.08
70851;DHT22;58475;49.662;9.636;2024-03-08T10:26:59;10.85;61.14
70851;DHT22;58475;49.662;9.636;2024-03-08T10:29:26;10.75;60.83
70851;DHT22;58475;49.662;9.636;2024-03-08T10:31:51;10.82;61.89
70851;DHT22;58475;49.662;9.636;2024-03-08T10:34:16;10.57;60.50
70851;DHT22;58475;49.662;9.636;2024-03-08T10:36:42;11.46;61.84
70851;DHT22;58475;49.662;9.636;2024-03-08T10:41:52;11.92;60.21
70851;DHT22;58475;49.662;9.636;2024-03-08T10:47:18;11.97;58.31
70851;DHT22;58475;49.662;9.636;2024-03-08T10:49:54;11.94;58.83
70851;DHT22;58475;49.662;9.636;2024-03-08T10:52:20;11.97;60.78
70851;DHT22;58475;49.662;9.636;2024-03-08T10:54:47;12.14;57.66
70851;DHT22;58475;49.662;9.636;2024-03-08T10:57:14;12.08;57.43
70851;DHT22;58475;49.662;9.636;2024-03-08T10:59:42;11.56;57.62
70851;DHT22;58475;49.662;9.636;2024-03-08T11:02:11;11.30;58.73
70851;DHT22;58475;49.662;9.636;2024-03-08T11:04:37;11.64;59.04
70851;DHT22;58475;49.662;9.636;2024-03-08T11:07:03;11.90;58.33
70851;DHT22;58475;49.662;9.636;2024-03-08T11:09:33;11.95;57.37
70851;DHT22;58475;49.662;9.636;2024-03-08T11:14:46;12.15;58.29
70851;DHT22;58475;49.662;9.636;2024-03-08T11:17:14;12.35;60.59
70851;DHT22;58475;49.662;9.636;2024-03-08T11:19:46;12.26;59.43
70851;DHT22;58475;49.662;9.636;2024-03-08T11:22:21;12.33;57.83
70851;DHT22;58475;49.662;9.636;2024-03-08T11:24:48;12.05;59.40
70851;DHT22;58475;49.662;9.636;2024-03-08T11:27:14;12.05;59.78
70851;DHT22;58475;49.662;9.636;2024-03-08T11:29:40;12.76;58.69
70851;DHT22;58475;49.662;9.636;2024-03-08T11:32:10;13.01;57.42
70851;DHT22;58475;49.662;9.636;2024-03-08T11:34:37;13.48;57.79
70851;DHT22;58475;49.662;9.636;2024-03-08T11:37:11;13.55;57.71
70851;DHT22;58475;49.662;9.636;2024-03-08T11:39:39;13.31;58.41
70851;DHT22;58475;49.662;9.636;2024-03-08T11:42:05;12.90;56.70
70851;DHT22;58475;49.662;9.636;2024-03-08T11:44:31;12.97;57.64
70851;DHT22;58475;49.662;9.636;2024-03-08T11:46:57;12.96;58.18
70851;DHT22;58475;49.662;9.636;2024-03-08T11:49:22;13.08;58.31
70851;DHT22;58475;49.662;9.636;2024-03-08T11:51:52;12.70;58.02
70851;DHT22;58475;49.662;9.636;2024-03-08T11:54:18;12.60;56.44
70851;DHT22;58475;49.662;9.636;2024-03-08T11:56:44;13.12;58.55
70851;DHT22;58475;49.662;9.636;2024-03-08T11:59:12;13.68;58.22
70851;DHT22;58475;49.662;9.636;2024-03-08T12:01:38;13.61;57.49
70851;DHT22;58475;49.662;9.636;2024-03-08T12:04:04;13.22;56.77
70851;DHT22;58475;49.662;9.636;2024-03-08T12:06:38;13.25;55.25
70851;DHT22;58475;49.662;9.636;2024-03-08T12:09:13;13.83;57.43
70851;DHT22;58475;49.662;9.636;2024-03-08T12:11:40;13.73;56.07
70851;DHT22;58475;49.662;9.636;2024-03-08T12:14:06;13.73;54.73
70851;DHT22;58475;49.662;9.636;2024-03-08T12:16:32;13.66;56.76
70851;DHT22;58475;49.662;9.636;2024-03-08T12:18:58;13.63;54.19
70851;DHT22;58475;49.662;9.636;2024-03-08T12:21:25;13.12;55.17
70851;DHT22;58475;49.662;9.636;2024-03-08T12:24:08;13.25;56.38
70851;DHT22;58475;49.662;9.636;2024-03-08T12:26:35;13.24;56.29
70851;DHT22;58475;49.662;9.636;2024-03-08T12:29:27;13.14;55.85
70851;DHT22;58475;49.662;9.636;2024-03-08T12:31:55;13.63;55.88
70851;DHT22;58475;49.662;9.636;2024-03-08T12:34:21;13.75;56.03
70851;DHT22;58475;49.662;9.636;2024-03-08T12:36:47;13.48;54.62
70851;DHT22;58475;49.662;9.636;2024-03-08T12:42:04;14.14;54.24
70851;DHT22;58475;49.662;9.636;2024-03-08T12:44:29;13.99;52.83
70851;DHT22;58475;49.662;9.636;2024-03-08T12:46:54;14.26;53.92
70851;DHT22;58475;49.662;9.636;2024-03-08T12:49:20;14.10;52.24
70851;DHT22;58475;49.662;9.636;2024-03-08T12:51:48;14.10;53.94
70851;DHT22;58475;49.662;9.636;2024-03-08T12:54:13;14.17;53.66
70851;DHT22;58475;49.662;9.636;2024-03-08T12:56:39;14.07;52.26
70851;DHT22;58475;49.662;9.636;2024-03-08T12:59:05;13.66;51.85
70851;DHT22;58475;49.662;9.636;2024-03-08T13:01:31;13.92;53.06
70851;DHT22;58475;49.662;9.636;2024-03-08T13:04:00;14.19;52.20
70851;DHT22;58475;49.662;9.636;2024-03-08T13:06:28;14.23;53.17
70851;DHT22;58475;49.662;9.636;2024-03-08T13:08:54;14.31;53.45
70851;DHT22;58475;49.662;9.636;2024-03-08T13:11:21;14.30;50.68
70851;DHT22;58475;49.662;9.636;2024-03-08T13:13:46;13.85;51.20
70851;DHT22;58475;49.662;9.636;2024-03-08T13:16:12;13.98;52.97
70851;DHT22;58475;49.662;9.636;2024-03-08T13:18:41;13.78;51.08
70851;DHT22;58475;49.662;9.636;2024-03-08T13:21:09;13.92;50.18
70851;DHT22;58475;49.662;9.636;2024-03-08T13:23:36;13.83;51.02
70851;DHT22;58475;49.662;9.636;2024-03-08T13:26:09;13.90;50.50
70851;DHT22;58475;49.662;9.636;2024-03-08T13:28:35;14.00;51.36
70851;DHT22;58475;49.662;9.636;2024-03-08T13:31:05;14.19;50.24
70851;DHT22;58475;49.662;9.636;2024-03-08T13:33:38;14.17;51.26
70851;DHT22;58475;49.662;9.636;2024-03-08T13:36:05;14.23;51.35
70851;DHT22;58475;49.662;9.636;2024-03-08T13:38:32;13.93;50.27
70851;DHT22;58475;49.662;9.636;2024-03-08T13:41:01;13.73;50.67
70851;DHT22;58475;49.662;9.636;2024-03-08T13:43:26;13.85;52.65
70851;DHT22;58475;49.662;9.636;2024-03-08T13:45:54;14.17;51.75
70851;DHT22;58475;49.662;9.636;2024-03-08T13:48:20;14.37;52.44
70851;DHT22;58475;49.662;9.636;2024-03-08T13:50:45;14.30;51.49
70851;DHT22;58475;49.662;9.636;2024-03-08T13:53:10;14.60;51.52
70851;DHT22;58475;49.662;9.636;2024-03-08T13:55:36;14.77;50.84
70851;DHT22;58475;49.662;9.636;2024-03-08T13:58:01;14.40;48.36
70851;DHT22;58475;49.662;9.636;2024-03-08T14:00:27;14.23;49.40
70851;DHT22;58475;49.662;9.636;2024-03-08T14:02:58;14.34;50.82
70851;DHT22;58475;49.662;9.636;2024-03-08T14:05:24;14.48;50.86
70851;DHT22;58475;49.662;9.636;2024-03-08T14:07:49;14.37;48.94
70851;DHT22;58475;49.662;9.636;2024-03-08T14:10:15;14.23;49.72
70851;DHT22;58475;49.662;9.636;2024-03-08T14:12:40;14.02;50.16
70851;DHT22;58475;49.662;9.636;2024-03-08T14:15:08;14.23;50.73
70851;DHT22;58475;49.662;9.636;2024-03-08T14:17:33;14.26;49.71
70851;DHT22;58475;49.662;9.636;2024-03-08T14:19:59;14.24;49.99
70851;DHT22;58475;49.662;9.636;2024-03-08T14:22:24;14.36;48.66
70851;DHT22;58475;49.662;9.636;2024-03-08T14:24:50;14.38;49.62
70851;DHT22;58475;49.662;9.636;2024-03-08T14:27:17;14.42;49.39
70851;DHT22;58475;49.662;9.636;2024-03-08T14:29:44;14.19;47.61
70851;DHT22;58475;49.662;9.636;2024-03-08T14:32:09;14.16;48.03
70851;DHT22;58475;49.662;9.636;2024-03-08T14:34:35;13.85;48.19
70851;DHT22;58475;49.662;9.636;2024-03-08T14:37:01;13.96;49.35
70851;DHT22;58475;49.662;9.636;2024-03-08T14:39:30;14.27;48.20
70851;DHT22;58475;49.662;9.636;2024-03-08T14:41:55;14.37;48.55
70851;DHT22;58475;49.662;9.636;2024-03-08T14:44:23;14.60;49.00
70851;DHT22;58475;49.662;9.636;2024-03-08T14:46:55;14.63;47.36
70851;DHT22;58475;49.662;9.636;2024-03-08T14:49:22;14.29;46.47
70851;DHT22;58475;49.662;9.636;2024-03-08T14:51:47;14.63;48.04
70851;DHT22;58475;49.662;9.636;2024-03-08T14:54:12;14.37;46.64
70851;DHT22;58475;49.662;9.636;2024-03-08T14:56:38;14.33;47.42
70851;DHT22;58475;49.662;9.636;2024-03-08T14:59:07;14.19;47.16
70851;DHT22;58475;49.662;9.636;2024-03-08T15:01:32;13.90;47.18
70851;DHT22;58475;49.662;9.636;2024-03-08T15:04:04;13.92;48.47
70851;DHT22;58475;49.662;9.636;2024-03-08T15:06:37;13.86;47.99
70851;DHT22;58475;49.662;9.636;2024-03-08T15:09:06;13.85;49.76
70851;DHT22;58475;49.662;9.636;2024-03-08T15:11:44;13.95;47.33
70851;DHT22;58475;49.662;9.636;2024-03-08T15:14:10;14.00;47.73
70851;DHT22;58475;49.662;9.636;2024-03-08T15:16:39;13.96;47.86
70851;DHT22;58475;49.662;9.636;2024-03-08T15:19:06;13.90;49.04
70851;DHT22;58475;49.662;9.636;2024-03-08T15:21:32;14.20;47.64
70851;DHT22;58475;49.662;9.636;2024-03-08T15:23:57;14.10;46.54
70851;DHT22;58475;49.662;9.636;2024-03-08T15:26:22;13.83;47.73
70851;DHT22;58475;49.662;9.636;2024-03-08T15:28:51;13.93;49.20
70851;DHT22;58475;49.662;9.636;2024-03-08T15:31:17;13.93;47.51
70851;DHT22;58475;49.662;9.636;2024-03-08T15:33:42;13.82;46.62
70851;DHT22;58475;49.662;9.636;2024-03-08T15:36:13;13.48;48.66
70851;DHT22;58475;49.662;9.636;2024-03-08T15:38:41;13.42;48.44
70851;DHT22;58475;49.662;9.636;2024-03-08T15:41:08;13.39;47.18
70851;DHT22;58475;49.662;9.636;2024-03-08T15:43:41;13.48;48.27
70851;DHT22;58475;49.662;9.636;2024-03-08T15:46:08;13.38;47.51
70851;DHT22;58475;49.662;9.636;2024-03-08T15:48:35;13.37;46.89